createdAt,value
2022-12-16T00:00:07.439Z,62.10
2022-12-16T00:02:34.323Z,61.40
2022-12-16T00:05:01.379Z,61.40
2022-12-16T00:07:28.760Z,62.00
2022-12-16T00:09:55.543Z,62.10
2022-12-16T00:12:22.528Z,62.00
2022-12-16T00:14:49.333Z,61.90
2022-12-16T00:17:16.188Z,61.30
2022-12-16T00:19:42.993Z,61.30
2022-12-16T00:22:09.961Z,61.30
2022-12-16T00:24:37.017Z,61.20
2022-12-16T00:27:03.922Z,61.80
2022-12-16T00:29:30.713Z,61.20
2022-12-16T00:31:57.614Z,61.20
2022-12-16T00:34:24.503Z,61.80
2022-12-16T00:36:51.811Z,61.90
2022-12-16T00:39:19.095Z,61.30
2022-12-16T00:41:47.611Z,61.90
2022-12-16T00:44:14.500Z,61.30
2022-12-16T00:46:41.334Z,64.30
2022-12-16T00:49:08.158Z,62.10
2022-12-16T00:51:35.215Z,61.90
2022-12-16T00:54:02.050Z,61.30
2022-12-16T00:56:29.042Z,61.30
2022-12-16T00:58:55.831Z,61.30
2022-12-16T01:01:22.754Z,61.40
2022-12-16T01:03:49.698Z,62.00
2022-12-16T01:06:18.182Z,62.00
2022-12-16T01:08:51.366Z,61.40
2022-12-16T01:11:19.842Z,61.30
2022-12-16T01:13:50.224Z,62.00
2022-12-16T01:16:19.572Z,62.00
2022-12-16T01:18:46.526Z,61.80
2022-12-16T01:21:14.995Z,61.90
2022-12-16T01:23:41.988Z,62.00
2022-12-16T01:26:12.738Z,61.90
2022-12-16T01:28:39.547Z,61.80
2022-12-16T01:31:06.416Z,61.20
2022-12-16T01:33:34.011Z,61.80
2022-12-16T01:36:08.850Z,61.10
2022-12-16T01:38:36.652Z,61.10
2022-12-16T01:41:04.637Z,61.70
2022-12-16T01:43:35.762Z,61.10
2022-12-16T01:46:24.903Z,61.60
2022-12-16T01:49:00.697Z,61.00
2022-12-16T01:51:33.288Z,61.60
2022-12-16T01:54:21.596Z,61.00
2022-12-16T01:57:00.463Z,60.90
2022-12-16T01:59:30.072Z,60.90
2022-12-16T02:01:57.950Z,60.90
2022-12-16T02:04:25.023Z,61.00
2022-12-16T02:09:19.576Z,61.10
2022-12-16T02:12:22.736Z,61.20
2022-12-16T02:15:07.903Z,61.20
2022-12-16T02:20:20.713Z,61.30
2022-12-16T02:22:53.323Z,61.20
2022-12-16T02:25:33.588Z,61.30
2022-12-16T02:28:06.174Z,61.20
2022-12-16T02:30:56.764Z,61.30
2022-12-16T02:33:37.415Z,61.30
2022-12-16T02:36:34.182Z,61.30
2022-12-16T02:39:21.631Z,62.00
2022-12-16T02:42:11.594Z,61.20
2022-12-16T02:44:51.224Z,61.20
2022-12-16T02:47:19.164Z,61.40
2022-12-16T02:49:49.428Z,61.50
2022-12-16T02:52:25.903Z,61.40
2022-12-16T02:54:57.384Z,61.50
2022-12-16T02:57:38.665Z,61.50
2022-12-16T03:00:14.382Z,61.30
2022-12-16T03:03:02.866Z,61.40
2022-12-16T03:05:42.703Z,61.50
2022-12-16T03:08:19.169Z,61.50
2022-12-16T03:10:56.215Z,61.60
2022-12-16T03:13:23.681Z,61.50
2022-12-16T03:15:54.166Z,61.50
2022-12-16T03:18:22.020Z,61.50
2022-12-16T03:20:58.743Z,61.60
2022-12-16T03:23:36.181Z,61.70
2022-12-16T03:26:08.382Z,61.60
2022-12-16T03:28:44.418Z,61.60
2022-12-16T03:31:41.501Z,61.50
2022-12-16T03:34:34.573Z,61.60
2022-12-16T03:37:08.429Z,61.60
2022-12-16T03:39:41.807Z,63.90
2022-12-16T03:42:10.065Z,61.50
2022-12-16T03:44:37.807Z,61.50
2022-12-16T03:47:05.542Z,61.60
2022-12-16T03:51:59.800Z,61.50
2022-12-16T03:54:26.745Z,61.50
2022-12-16T04:04:18.163Z,61.50
2022-12-16T04:17:35.751Z,61.40
2022-12-16T04:23:06.903Z,61.30
2022-12-16T04:25:36.382Z,61.30
2022-12-16T04:28:03.734Z,61.30
2022-12-16T04:30:34.873Z,61.20
2022-12-16T04:33:23.253Z,61.30
2022-12-16T04:36:08.970Z,61.30
2022-12-16T04:38:54.210Z,61.50
2022-12-16T04:44:25.440Z,61.40
2022-12-16T04:49:56.960Z,61.40
2022-12-16T04:52:42.863Z,61.40
2022-12-16T04:58:17.511Z,61.20
2022-12-16T05:01:04.223Z,61.10
2022-12-16T05:03:50.152Z,60.90
2022-12-16T05:06:36.130Z,60.80
2022-12-16T05:09:22.674Z,60.70
2022-12-16T05:26:21.053Z,60.30
2022-12-16T05:43:06.618Z,60.40
2022-12-16T05:51:33.791Z,60.10
2022-12-16T05:57:07.107Z,60.30
2022-12-16T05:59:53.435Z,60.30
2022-12-16T06:05:26.313Z,60.20
2022-12-16T06:35:52.101Z,60.20
2022-12-16T06:55:12.802Z,60.30
2022-12-16T07:09:10.995Z,60.60
2022-12-16T07:23:13.053Z,60.50
2022-12-16T07:28:53.563Z,60.80
2022-12-16T07:48:31.863Z,60.80
2022-12-16T07:56:51.685Z,61.10
2022-12-16T07:59:39.091Z,61.20
2022-12-16T08:02:27.775Z,61.30
2022-12-16T08:16:34.906Z,61.70
2022-12-16T08:30:28.029Z,61.60
2022-12-16T08:36:06.147Z,61.80
2022-12-16T08:38:51.806Z,62.40
2022-12-16T08:49:59.806Z,62.60
2022-12-16T08:55:34.138Z,62.90
2022-12-16T08:58:19.498Z,63.00
2022-12-16T09:03:55.274Z,63.20
2022-12-16T09:09:27.424Z,63.30
2022-12-16T09:23:21.164Z,63.70
2022-12-16T09:28:53.335Z,63.70
2022-12-16T09:31:40.237Z,66.70
2022-12-16T09:34:25.580Z,63.70
2022-12-16T09:39:56.914Z,63.90
2022-12-16T09:43:09.873Z,64.10
2022-12-16T09:46:02.604Z,64.10
2022-12-16T09:49:12.133Z,64.10
2022-12-16T09:51:59.386Z,64.20
2022-12-16T09:54:48.555Z,64.30
2022-12-16T09:57:34.571Z,64.50
2022-12-16T10:00:26.785Z,64.60
2022-12-16T10:03:15.656Z,64.70
2022-12-16T10:06:15.937Z,64.70
2022-12-16T10:09:21.560Z,65.30
2022-12-16T10:12:25.166Z,64.70
2022-12-16T10:15:31.680Z,64.90
2022-12-16T10:18:21.490Z,64.90
2022-12-16T10:21:13.543Z,64.90
2022-12-16T10:24:09.681Z,65.40
2022-12-16T10:27:12.160Z,64.90
2022-12-16T10:30:00.705Z,65.60
2022-12-16T10:32:55.664Z,65.40
2022-12-16T10:35:46.162Z,64.90
2022-12-16T10:38:57.465Z,65.40
2022-12-16T10:41:48.164Z,65.50
2022-12-16T10:44:50.472Z,65.50
2022-12-16T10:47:38.538Z,63.90
2022-12-16T10:50:25.266Z,65.50
2022-12-16T10:53:18.841Z,65.50
2022-12-16T10:56:22.675Z,65.50
2022-12-16T10:59:21.749Z,65.50
2022-12-16T11:02:35.850Z,65.50
2022-12-16T11:05:47.105Z,65.60
2022-12-16T11:08:41.787Z,65.70
2022-12-16T11:11:43.192Z,65.60
2022-12-16T11:15:27.069Z,65.70
2022-12-16T11:18:21.110Z,65.90
2022-12-16T11:21:28.711Z,65.70
2022-12-16T11:24:40.068Z,65.80
2022-12-16T11:27:44.369Z,65.70
2022-12-16T11:30:41.949Z,65.80
2022-12-16T11:33:43.047Z,65.70
2022-12-16T11:36:43.060Z,65.70
2022-12-16T11:39:35.812Z,65.70
2022-12-16T11:42:23.468Z,65.80
2022-12-16T11:45:16.091Z,65.70
2022-12-16T11:48:09.571Z,65.80
2022-12-16T11:50:59.983Z,65.90
2022-12-16T11:53:51.298Z,66.40
2022-12-16T11:56:43.802Z,65.80
2022-12-16T11:59:42.333Z,65.80
2022-12-16T12:02:39.623Z,65.90
2022-12-16T12:05:25.805Z,66.00
2022-12-16T12:08:23.894Z,66.10
2022-12-16T12:11:23.555Z,66.20
2022-12-16T12:14:12.412Z,66.30
2022-12-16T12:17:02.712Z,66.30
2022-12-16T12:19:59.357Z,66.40
2022-12-16T12:22:54.815Z,66.40
2022-12-16T12:26:01.218Z,66.30
2022-12-16T12:28:55.729Z,67.40
2022-12-16T12:32:23.900Z,66.00
2022-12-16T12:35:45.216Z,65.90
2022-12-16T12:38:36.586Z,65.90
2022-12-16T12:41:30.328Z,65.90
2022-12-16T12:44:48.878Z,65.90
2022-12-16T12:47:36.427Z,66.80
2022-12-16T12:50:32.280Z,66.10
2022-12-16T12:53:37.069Z,65.90
2022-12-16T12:56:53.680Z,65.70
2022-12-16T13:00:01.823Z,65.70
2022-12-16T13:03:06.576Z,65.60
2022-12-16T13:05:56.119Z,65.60
2022-12-16T13:08:59.860Z,65.50
2022-12-16T13:11:45.358Z,65.30
2022-12-16T13:14:49.160Z,65.30
2022-12-16T13:17:41.785Z,65.10
2022-12-16T13:20:52.683Z,65.30
2022-12-16T13:23:51.560Z,65.00
2022-12-16T13:26:39.518Z,65.00
2022-12-16T13:29:40.100Z,65.00
2022-12-16T13:32:25.781Z,64.90
2022-12-16T13:35:22.779Z,64.90
2022-12-16T13:38:20.880Z,64.60
2022-12-16T13:41:17.031Z,64.60
2022-12-16T13:44:08.741Z,64.30
2022-12-16T13:47:04.629Z,64.40
2022-12-16T13:49:56.183Z,64.10
2022-12-16T13:52:51.421Z,64.00
2022-12-16T13:55:42.840Z,63.80
2022-12-16T13:58:53.491Z,63.70
2022-12-16T14:01:46.758Z,63.60
2022-12-16T14:04:44.761Z,63.60
2022-12-16T14:07:30.819Z,63.40
2022-12-16T14:10:16.066Z,63.50
2022-12-16T14:13:23.958Z,63.40
2022-12-16T14:16:24.108Z,63.30
2022-12-16T14:19:21.892Z,63.40
2022-12-16T14:22:23.599Z,63.30
2022-12-16T14:25:29.376Z,63.20
2022-12-16T14:28:16.013Z,63.20
2022-12-16T14:31:01.249Z,63.20
2022-12-16T14:33:48.093Z,63.30
2022-12-16T14:36:47.386Z,63.20
2022-12-16T14:39:40.336Z,63.10
2022-12-16T14:42:45.074Z,63.20
2022-12-16T14:45:41.733Z,63.10
2022-12-16T14:48:57.302Z,63.10
2022-12-16T14:51:51.845Z,63.10
2022-12-16T14:54:37.280Z,63.20
2022-12-16T14:57:23.197Z,63.10
2022-12-16T15:00:33.600Z,63.10
2022-12-16T15:03:46.543Z,63.00
2022-12-16T15:06:44.643Z,62.90
2022-12-16T15:09:42.379Z,62.90
2022-12-16T15:12:29.973Z,62.80
2022-12-16T15:15:16.376Z,62.90
2022-12-16T15:18:07.467Z,62.80
2022-12-16T15:21:02.598Z,62.70
2022-12-16T15:23:51.604Z,63.30
2022-12-16T15:26:40.099Z,62.40
2022-12-16T15:29:53.044Z,62.40
2022-12-16T15:32:56.307Z,62.30
2022-12-16T15:35:44.651Z,62.30
2022-12-16T15:38:43.506Z,62.30
2022-12-16T15:41:41.599Z,62.60
2022-12-16T15:44:38.993Z,62.20
2022-12-16T15:47:38.579Z,62.10
2022-12-16T15:50:24.917Z,62.10
2022-12-16T15:53:27.802Z,62.10
2022-12-16T15:56:14.702Z,62.20
2022-12-16T15:59:00.081Z,62.20
2022-12-16T16:01:46.560Z,62.20
2022-12-16T16:04:45.309Z,62.20
2022-12-16T16:07:50.853Z,62.30
2022-12-16T16:10:39.248Z,62.30
2022-12-16T16:13:25.146Z,62.20
2022-12-16T16:16:11.686Z,62.30
2022-12-16T16:18:57.668Z,62.30
2022-12-16T16:21:43.300Z,62.40
2022-12-16T16:24:32.129Z,62.30
2022-12-16T16:27:28.695Z,62.30
2022-12-16T16:30:14.239Z,62.30
2022-12-16T16:32:59.494Z,62.30
2022-12-16T16:35:45.312Z,63.30
2022-12-16T16:38:31.694Z,62.30
2022-12-16T16:41:16.901Z,62.30
2022-12-16T16:44:02.280Z,62.40
2022-12-16T16:46:59.484Z,62.30
2022-12-16T16:49:51.451Z,62.50
2022-12-16T16:52:40.341Z,62.60
2022-12-16T16:55:32.009Z,62.30
2022-12-16T16:58:17.307Z,62.20
2022-12-16T17:01:02.747Z,62.30
2022-12-16T17:03:48.283Z,62.20
2022-12-16T17:06:33.951Z,62.20
2022-12-16T17:09:21.027Z,62.30
2022-12-16T17:12:06.834Z,62.20
2022-12-16T17:14:52.812Z,62.30
2022-12-16T17:17:38.572Z,62.40
2022-12-16T17:20:24.769Z,62.40
2022-12-16T17:23:10.312Z,62.30
2022-12-16T17:25:56.340Z,62.30
2022-12-16T17:28:42.068Z,62.20
2022-12-16T17:31:29.228Z,62.20
2022-12-16T17:34:14.738Z,62.10
2022-12-16T17:37:00.299Z,62.30
2022-12-16T17:39:45.637Z,62.20
2022-12-16T17:42:30.824Z,62.20
2022-12-16T17:45:16.314Z,62.30
2022-12-16T17:48:01.640Z,62.30
2022-12-16T17:50:47.164Z,62.40
2022-12-16T17:53:32.879Z,62.20
2022-12-16T17:56:23.274Z,62.20
2022-12-16T17:59:11.067Z,62.20
2022-12-16T18:01:57.034Z,63.90
2022-12-16T18:04:42.601Z,62.10
2022-12-16T18:07:28.113Z,61.70
2022-12-16T18:10:13.482Z,61.70
2022-12-16T18:12:59.239Z,62.10
2022-12-16T18:15:44.577Z,62.20
2022-12-16T18:18:29.975Z,62.90
2022-12-16T18:21:15.278Z,62.30
2022-12-16T18:24:00.751Z,62.30
2022-12-16T18:26:45.933Z,61.80
2022-12-16T18:29:31.213Z,62.30
2022-12-16T18:32:16.685Z,62.30
2022-12-16T18:35:01.989Z,62.30
2022-12-16T18:37:47.658Z,61.70
2022-12-16T18:40:33.299Z,62.20
2022-12-16T18:43:23.354Z,62.20
2022-12-16T18:46:12.805Z,61.60
2022-12-16T18:48:58.431Z,62.20
2022-12-16T18:51:43.902Z,61.50
2022-12-16T18:54:29.260Z,61.50
2022-12-16T18:57:14.996Z,61.50
2022-12-16T19:00:00.431Z,62.00
2022-12-16T19:02:46.079Z,62.00
2022-12-16T19:05:31.703Z,61.60
2022-12-16T19:08:17.591Z,62.10
2022-12-16T19:11:03.008Z,61.70
2022-12-16T19:13:48.448Z,62.10
2022-12-16T19:16:34.000Z,61.40
2022-12-16T19:19:20.557Z,62.10
2022-12-16T19:22:06.430Z,61.50
2022-12-16T19:24:52.055Z,61.60
2022-12-16T19:27:37.619Z,62.10
2022-12-16T19:30:23.667Z,61.50
2022-12-16T19:33:09.357Z,63.90
2022-12-16T19:35:55.081Z,61.50
2022-12-16T19:38:42.704Z,61.70
2022-12-16T19:41:35.640Z,61.70
2022-12-16T19:44:22.190Z,61.70
2022-12-16T19:47:07.978Z,61.80
2022-12-16T19:49:56.020Z,61.80
2022-12-16T19:52:42.191Z,62.50
2022-12-16T19:55:27.791Z,62.00
2022-12-16T19:58:13.321Z,62.60
2022-12-16T20:00:59.240Z,62.50
2022-12-16T20:03:45.432Z,61.90
2022-12-16T20:06:31.506Z,62.00
2022-12-16T20:09:17.058Z,62.00
2022-12-16T20:12:03.029Z,61.90
2022-12-16T20:17:56.552Z,62.10
2022-12-16T20:20:42.032Z,61.90
2022-12-16T20:23:27.208Z,62.00
2022-12-16T20:26:16.908Z,61.80
2022-12-16T20:29:03.039Z,61.90
2022-12-16T20:31:48.638Z,61.90
2022-12-16T20:34:34.250Z,62.00
2022-12-16T20:37:30.559Z,62.00
2022-12-16T20:45:47.816Z,61.90
2022-12-16T20:48:34.672Z,61.90
2022-12-16T20:54:31.286Z,61.80
2022-12-16T20:57:16.886Z,61.70
2022-12-16T21:00:02.442Z,61.70
2022-12-16T21:05:33.764Z,61.60
2022-12-16T21:11:05.253Z,61.60
2022-12-16T21:16:37.288Z,61.60
2022-12-16T21:27:48.744Z,61.50
2022-12-16T21:33:20.828Z,61.40
2022-12-16T21:36:13.180Z,61.40
2022-12-16T21:38:58.462Z,61.30
2022-12-16T21:41:43.968Z,61.40
2022-12-16T21:47:15.385Z,61.40
2022-12-16T21:52:47.095Z,61.40
2022-12-16T22:03:54.268Z,61.20
2022-12-16T22:09:48.056Z,61.10
2022-12-16T22:29:28.737Z,60.50
2022-12-16T22:32:14.143Z,60.50
2022-12-16T22:37:45.522Z,60.60
2022-12-16T22:46:15.675Z,60.50
2022-12-16T22:51:46.721Z,60.60
2022-12-16T22:54:32.412Z,60.70
2022-12-16T22:57:17.917Z,60.60
2022-12-16T23:00:03.442Z,60.30
2022-12-16T23:11:13.915Z,60.10
2022-12-16T23:13:59.214Z,60.20
2022-12-16T23:22:16.496Z,60.10
2022-12-16T23:25:02.258Z,60.10
2022-12-16T23:33:21.056Z,60.40
2022-12-16T23:36:06.883Z,60.50
2022-12-16T23:47:11.314Z,60.10
2022-12-16T23:49:56.771Z,60.10
2022-12-16T23:58:18.574Z,60.20
